Arch Cape, Oregon
Current Conditions -  °F | °C
As of 2:16 PM on Saturday 25 Oct 2014 (Local Time) from KAST Reporting Station
Light Rain Light Rain  
Wind Chill: 15°   Ceiling: 3800
Heat Index: 15°   Visibility: 3mi
Dew Point: 12°   Wind: 31mph
Humidity: 83%   Direction: 190°S
Pressure: 29.23"   Gusts: 49mph
Location:  45.8°N, 123.96°W
Report Text: KAST 252116Z AUTO 19027G43KT 3SM -RA FEW019 BKN038 OVC065 15/12 A2923 RMK AO2 PK WND 18043/2110 P0002 T01500122
Loading
Personal Weather Stations






























Interactive Weather Map
Tropical Storm Tracking
New forecast layout! Learn more

10-Day Weather Forecast

Advertisements
Track Severe Weather on mobile